This is the latest recevied weather packets stored in our database for station/object DB8NZ-11. If no packets are shown the sender has not sent any weather packets the latest 10 day(s).
| Time | Temp. | Humidity | Pressure | Rain* | Wind** | Luminosity | Snow |
|---|---|---|---|---|---|---|---|
| 1777649429 | 26.11° C | 20% | 1029.3 hPa | - | - | - | - |
| 1777648529 | 26.67° C | 20% | 1029.5 hPa | - | - | - | - |
| 1777647629 | 27.22° C | 20% | 1029.7 hPa | - | - | - | - |
| 1777646729 | 27.22° C | 19% | 1029.8 hPa | - | - | - | - |
| 1777645829 | 27.22° C | 19% | 1029.8 hPa | - | - | - | - |
| 1777644928 | 27.22° C | 19% | 1029.9 hPa | - | - | - | - |
| 1777644028 | 27.22° C | 19% | 1030.1 hPa | - | - | - | - |
| 1777643128 | 27.22° C | 20% | 1030.2 hPa | - | - | - | - |
| 1777642227 | 27.22° C | 20% | 1030.4 hPa | - | - | - | - |
| 1777641327 | 27.22° C | 20% | 1030.6 hPa | - | - | - | - |
| 1777640427 | 27.78° C | 20% | 1030.7 hPa | - | - | - | - |
| 1777639527 | 27.22° C | 20% | 1031.1 hPa | - | - | - | - |
| 1777638627 | 26.67° C | 19% | 1031.3 hPa | - | - | - | - |
| 1777637727 | 26.67° C | 20% | 1031.4 hPa | - | - | - | - |
| 1777636826 | 26.11° C | 21% | 1031.5 hPa | - | - | - | - |
| 1777635926 | 25.56° C | 21% | 1031.7 hPa | - | - | - | - |
| 1777635026 | 25° C | 21% | 1031.9 hPa | - | - | - | - |
| 1777634126 | 25° C | 21% | 1032 hPa | - | - | - | - |
| 1777633226 | 24.44° C | 21% | 1032.2 hPa | - | - | - | - |
| 1777632325 | 23.33° C | 23% | 1032.5 hPa | - | - | - | - |
| 1777631425 | 25° C | 21% | 1032.4 hPa | - | - | - | - |
| 1777630525 | 24.44° C | 20% | 1032.7 hPa | - | - | - | - |
| 1777629625 | 24.44° C | 22% | 1032.6 hPa | - | - | - | - |
| 1777628725 | 23.89° C | 22% | 1032.8 hPa | - | - | - | - |
| 1777627825 | 23.89° C | 22% | 1032.9 hPa | - | - | - | - |
* Rain since midnight (hover to see other rain measurements)
** Current wind speed in m/s (hover to see current wind gust speed)